Time;durP1;ratioP1;P1;durP2;ratioP2;P2;SDS_P1;SDS_P2;PMS_P1;PMS_P2;Temp;Humidity;BMP_temperature;BMP_pressure;BME280_temperature;BME280_humidity;BME280_pressure;Samples;Min_cycle;Max_cycle;Signal;HPM_P1;HPM_P2
2022/10/25 00:06:01;;;;;;;;;;;;;;;11.77;100.00;100470.28;20971512;28;19936;-62
2022/10/25 00:16:24;;;;;;;;;;;;;;;11.81;100.00;100470.88;20974821;28;19924;-62
2022/10/25 00:26:45;;;;;;;;;;;;;;;12.07;100.00;100467.16;20994654;28;19972;-63
2022/10/25 00:37:07;;;;;;;;;;;;;;;12.14;100.00;100469.19;20990291;28;19928;-62
2022/10/25 00:47:40;;;;;;;;;;;;;;;12.28;100.00;100475.94;20953583;28;19924;-62
2022/10/25 00:58:05;;;;;;;;;;;;;;;12.23;100.00;100483.28;20954245;28;19928;-62
2022/10/25 01:08:26;;;;;;;;;;;;;;;12.19;100.00;100487.09;20955916;28;19975;-62
2022/10/25 01:18:54;;;;;;;;;;;;;;;12.22;100.00;100486.88;20987504;28;19924;-63
2022/10/25 01:29:34;;;;;;;;;;;;;;;12.25;100.00;100486.63;20971910;28;19925;-63
2022/10/25 01:39:59;;;;;;;;;;;;;;;12.10;100.00;100487.78;20967922;28;19928;-63
2022/10/25 01:50:23;;;;;;;;;;;;;;;11.92;100.00;100490.03;20971349;28;20549;-63
2022/10/25 02:00:50;;;;;;;;;;;;;;;11.97;100.00;100487.06;20998551;28;19936;-63
2022/10/25 02:11:22;;;;;;;;;;;;;;;11.72;100.00;100498.50;20970608;28;20376;-62
2022/10/25 02:21:45;;;;;;;;;;;;;;;11.88;100.00;100508.66;20970575;28;19928;-63
2022/10/25 02:32:07;;;;;;;;;;;;;;;11.94;100.00;100519.47;20968438;28;19928;-63
2022/10/25 02:42:28;;;;;;;;;;;;;;;12.06;100.00;100522.97;20967812;28;19928;-63
2022/10/25 02:52:50;;;;;;;;;;;;;;;11.97;100.00;100523.63;20995153;28;20245;-63
2022/10/25 03:03:11;;;;;;;;;;;;;;;11.98;100.00;100526.16;20996793;28;19939;-63
2022/10/25 03:13:32;;;;;;;;;;;;;;;11.94;100.00;100518.63;20986187;28;19928;-63
2022/10/25 03:23:54;;;;;;;;;;;;;;;12.14;100.00;100536.25;20963356;28;20384;-63
2022/10/25 03:34:15;;;;;;;;;;;;;;;12.15;100.00;100532.69;20964664;28;19971;-63
2022/10/25 03:44:37;;;;;;;;;;;;;;;12.05;100.00;100542.19;20973659;28;19932;-63
2022/10/25 03:54:58;;;;;;;;;;;;;;;12.04;100.00;100550.97;20963205;28;19985;-62
2022/10/25 04:05:19;;;;;;;;;;;;;;;11.96;100.00;100554.16;20959723;28;19967;-62
2022/10/25 04:15:41;;;;;;;;;;;;;;;11.98;100.00;100567.09;20960116;28;19955;-62
2022/10/25 04:26:02;;;;;;;;;;;;;;;12.01;100.00;100569.47;20965915;28;19925;-63
2022/10/25 04:36:26;;;;;;;;;;;;;;;11.97;100.00;100565.44;20989893;28;19939;-61
2022/10/25 04:46:48;;;;;;;;;;;;;;;12.06;100.00;100575.22;20959859;28;19950;-63
2022/10/25 04:57:09;;;;;;;;;;;;;;;12.12;100.00;100578.19;20967656;28;20490;-63
2022/10/25 05:07:31;;;;;;;;;;;;;;;12.09;100.00;100591.47;20976060;28;19928;-63
2022/10/25 05:17:55;;;;;;;;;;;;;;;12.15;100.00;100595.41;20985860;28;19977;-63
2022/10/25 05:28:17;;;;;;;;;;;;;;;12.16;100.00;100602.31;20974319;28;19932;-63
2022/10/25 05:38:38;;;;;;;;;;;;;;;12.16;100.00;100610.16;20968844;28;19928;-62
2022/10/25 05:49:00;;;;;;;;;;;;;;;12.23;100.00;100622.66;20987713;28;20070;-63
2022/10/25 05:59:21;;;;;;;;;;;;;;;12.23;100.00;100630.50;20977850;28;19924;-63
2022/10/25 06:09:42;;;;;;;;;;;;;;;12.29;100.00;100640.50;20978854;28;19934;-63
2022/10/25 06:20:04;;;;;;;;;;;;;;;12.24;100.00;100654.81;20961922;28;19959;-63
2022/10/25 06:30:25;;;;;;;;;;;;;;;12.35;100.00;100667.97;20965510;28;19928;-64
2022/10/25 06:40:47;;;;;;;;;;;;;;;12.31;100.00;100684.81;20912155;28;1770403;-64
2022/10/25 06:51:08;;;;;;;;;;;;;;;12.23;100.00;100697.59;20992603;28;20262;-64
2022/10/25 07:01:30;;;;;;;;;;;;;;;12.36;100.00;100712.28;20967794;28;19970;-64
2022/10/25 07:11:51;;;;;;;;;;;;;;;12.34;100.00;100726.41;21004943;28;19982;-65
2022/10/25 07:22:13;;;;;;;;;;;;;;;12.32;100.00;100744.81;20962860;28;19982;-64
2022/10/25 07:32:34;;;;;;;;;;;;;;;12.51;100.00;100751.22;20958090;28;20629;-62
2022/10/25 07:43:02;;;;;;;;;;;;;;;12.39;100.00;100760.88;20958138;28;19936;-63
2022/10/25 07:53:23;;;;;;;;;;;;;;;12.62;100.00;100772.16;20961362;28;19929;-64
2022/10/25 08:03:45;;;;;;;;;;;;;;;12.79;100.00;100786.59;20961459;28;19970;-62
2022/10/25 08:14:06;;;;;;;;;;;;;;;12.81;100.00;100790.75;20955862;28;19924;-62
2022/10/25 08:24:28;;;;;;;;;;;;;;;12.88;100.00;100806.88;20954889;28;19959;-62
2022/10/25 08:34:49;;;;;;;;;;;;;;;12.82;100.00;100802.06;20950929;28;19982;-62
2022/10/25 08:45:20;;;;;;;;;;;;;;;12.90;100.00;100821.53;20944151;28;20388;-62
2022/10/25 08:55:42;;;;;;;;;;;;;;;13.16;100.00;100832.69;20952569;28;19986;-63
2022/10/25 09:06:36;;;;;;;;;;;;;;;13.12;100.00;100834.66;20948683;28;19991;-62
2022/10/25 09:17:05;;;;;;;;;;;;;;;13.24;100.00;100851.25;20949751;28;19959;-62
2022/10/25 09:27:46;;;;;;;;;;;;;;;13.30;100.00;100861.28;20948792;28;19983;-62
2022/10/25 09:38:11;;;;;;;;;;;;;;;13.49;100.00;100878.09;20943766;28;19996;-63
2022/10/25 09:48:52;;;;;;;;;;;;;;;13.61;100.00;100888.47;20945984;28;19990;-62
2022/10/25 09:59:14;;;;;;;;;;;;;;;13.48;100.00;100892.16;20955381;28;19936;-62
2022/10/25 10:09:38;;;;;;;;;;;;;;;13.87;96.30;100899.56;20956656;28;19928;-63
2022/10/25 10:20:07;;;;;;;;;;;;;;;13.82;94.21;100922.69;20958869;28;19978;-62
2022/10/25 10:30:29;;;;;;;;;;;;;;;13.76;95.39;100931.00;20949728;28;19928;-63
2022/10/25 10:40:52;;;;;;;;;;;;;;;13.67;95.67;100935.16;20977467;28;20364;-62
2022/10/25 10:51:16;;;;;;;;;;;;;;;13.93;95.67;100920.91;20966095;28;19928;-63
2022/10/25 11:02:09;;;;;;;;;;;;;;;13.72;95.43;100938.28;20943832;28;20018;-64
2022/10/25 11:12:30;;;;;;;;;;;;;;;14.37;92.76;100934.06;20948779;28;19963;-64
2022/10/25 11:23:15;;;;;;;;;;;;;;;14.57;91.57;100944.66;20942967;28;20560;-61
2022/10/25 11:33:39;;;;;;;;;;;;;;;14.38;88.62;100950.66;20941997;28;19972;-62
2022/10/25 11:44:01;;;;;;;;;;;;;;;14.39;89.42;100952.31;20962953;28;20007;-64
2022/10/25 11:54:25;;;;;;;;;;;;;;;14.84;88.35;100963.47;20948469;28;19933;-63
2022/10/25 12:05:05;;;;;;;;;;;;;;;14.58;85.02;100971.75;20946464;28;19928;-65
2022/10/25 12:15:39;;;;;;;;;;;;;;;14.69;83.74;100980.44;20961236;28;19933;-63
2022/10/25 12:26:04;;;;;;;;;;;;;;;14.42;86.18;100992.25;20945090;28;20388;-63
2022/10/25 12:36:28;;;;;;;;;;;;;;;14.29;86.89;100990.69;20964060;28;19939;-63
2022/10/25 12:46:56;;;;;;;;;;;;;;;14.78;83.94;100992.81;20959185;28;19983;-63
2022/10/25 12:57:20;;;;;;;;;;;;;;;14.68;82.66;100999.75;20948757;28;19980;-63
2022/10/25 13:07:42;;;;;;;;;;;;;;;14.39;84.82;100994.28;20940647;28;19935;-63
2022/10/25 13:18:05;;;;;;;;;;;;;;;14.37;85.33;100988.31;20961466;28;20584;-63
2022/10/25 13:28:28;;;;;;;;;;;;;;;14.92;81.13;100997.81;20980186;28;19931;-64
2022/10/25 13:39:04;;;;;;;;;;;;;;;14.95;81.15;101018.56;20961159;28;19924;-62
2022/10/25 13:49:33;;;;;;;;;;;;;;;15.10;82.71;101012.09;20962950;28;19943;-62
2022/10/25 13:59:59;;;;;;;;;;;;;;;15.11;83.35;101024.28;20970307;28;20339;-61
2022/10/25 14:10:23;;;;;;;;;;;;;;;15.12;82.83;101012.81;20950828;28;19955;-62
2022/10/25 14:20:46;;;;;;;;;;;;;;;15.03;83.40;101016.16;20951126;28;19929;-62
2022/10/25 14:31:10;;;;;;;;;;;;;;;14.84;85.37;101010.72;20952618;28;19936;-62
2022/10/25 14:41:33;;;;;;;;;;;;;;;14.63;86.08;101006.31;20966666;28;19933;-62
2022/10/25 14:51:58;;;;;;;;;;;;;;;14.98;85.81;101007.84;20951859;28;19989;-62
2022/10/25 15:02:31;;;;;;;;;;;;;;;14.88;84.73;101011.31;20949357;28;19971;-62
2022/10/25 15:12:53;;;;;;;;;;;;;;;14.53;85.46;101010.59;20949060;28;19928;-62
2022/10/25 15:23:18;;;;;;;;;;;;;;;14.35;87.74;101011.19;20978373;28;19928;-63
2022/10/25 15:33:40;;;;;;;;;;;;;;;14.06;89.42;101004.69;20956872;28;19932;-63
2022/10/25 15:44:01;;;;;;;;;;;;;;;13.91;90.50;101016.34;20944588;28;19936;-63
2022/10/25 15:54:23;;;;;;;;;;;;;;;13.72;92.30;101016.03;20948305;28;19952;-62
2022/10/25 16:04:45;;;;;;;;;;;;;;;13.51;93.12;101017.63;20945661;28;20642;-62
2022/10/25 16:15:09;;;;;;;;;;;;;;;13.19;96.45;101027.00;20947135;28;19944;-61
2022/10/25 16:25:31;;;;;;;;;;;;;;;13.15;96.52;101035.19;20948854;28;19947;-63
2022/10/25 16:35:53;;;;;;;;;;;;;;;12.93;97.68;101043.72;20959743;28;19928;-62
2022/10/25 16:46:15;;;;;;;;;;;;;;;12.91;97.96;101043.00;20967932;28;19924;-62
2022/10/25 16:56:36;;;;;;;;;;;;;;;12.71;99.21;101040.06;20962888;28;19977;-62
2022/10/25 17:06:59;;;;;;;;;;;;;;;12.46;100.00;101049.72;20953425;28;19929;-62
2022/10/25 17:17:21;;;;;;;;;;;;;;;12.27;100.00;101039.69;20977677;28;19977;-62
2022/10/25 17:27:46;;;;;;;;;;;;;;;12.07;100.00;101052.44;20983679;28;19932;-62
2022/10/25 17:38:09;;;;;;;;;;;;;;;11.96;100.00;101055.75;20959275;28;20438;-62
2022/10/25 17:48:31;;;;;;;;;;;;;;;11.86;100.00;101064.28;20953600;28;20380;-62
2022/10/25 17:58:52;;;;;;;;;;;;;;;11.77;100.00;101065.72;20949085;28;19932;-61
2022/10/25 18:09:14;;;;;;;;;;;;;;;11.60;100.00;101073.00;20970817;28;19932;-62
2022/10/25 18:19:35;;;;;;;;;;;;;;;11.58;100.00;101073.06;20954707;28;19967;-62
2022/10/25 18:29:57;;;;;;;;;;;;;;;11.51;100.00;101073.53;20969456;28;19933;-61
2022/10/25 18:40:18;;;;;;;;;;;;;;;11.33;100.00;101079.97;20967090;28;19932;-62
2022/10/25 18:50:40;;;;;;;;;;;;;;;11.29;100.00;101088.06;20968542;28;20664;-61
2022/10/25 19:01:07;;;;;;;;;;;;;;;11.20;100.00;101076.47;20959252;28;20388;-61
2022/10/25 19:11:28;;;;;;;;;;;;;;;11.12;100.00;101077.88;20967854;28;19933;-61
2022/10/25 19:21:50;;;;;;;;;;;;;;;10.97;100.00;101071.00;20950195;28;20408;-62
2022/10/25 19:32:11;;;;;;;;;;;;;;;10.89;100.00;101063.66;20944734;28;20443;-61
2022/10/25 19:42:33;;;;;;;;;;;;;;;10.82;100.00;101062.34;20960414;28;20039;-62
2022/10/25 19:52:54;;;;;;;;;;;;;;;10.72;100.00;101058.63;20962826;28;19982;-62
2022/10/25 20:03:15;;;;;;;;;;;;;;;10.71;100.00;101070.00;20948552;28;19982;-62
2022/10/25 20:13:37;;;;;;;;;;;;;;;10.68;100.00;101070.16;20937129;28;20380;-62
2022/10/25 20:23:59;;;;;;;;;;;;;;;10.61;100.00;101078.47;20929854;28;20052;-62
2022/10/25 20:34:21;;;;;;;;;;;;;;;10.56;100.00;101086.56;20931861;28;19943;-62
2022/10/25 20:44:42;;;;;;;;;;;;;;;10.49;100.00;101084.41;20932791;28;20005;-62
2022/10/25 20:55:04;;;;;;;;;;;;;;;10.32;100.00;101084.56;20938999;28;19983;-62
2022/10/25 21:05:25;;;;;;;;;;;;;;;10.33;100.00;101088.84;20943591;28;19936;-62
2022/10/25 21:15:47;;;;;;;;;;;;;;;10.19;100.00;101096.66;20942333;28;20777;-62
2022/10/25 21:26:08;;;;;;;;;;;;;;;10.12;100.00;101095.31;20944493;28;20397;-62
2022/10/25 21:36:30;;;;;;;;;;;;;;;10.12;100.00;101094.50;20964303;28;19924;-62
2022/10/25 21:46:51;;;;;;;;;;;;;;;10.06;100.00;101097.44;20965303;28;19929;-62
2022/10/25 21:57:13;;;;;;;;;;;;;;;10.06;100.00;101097.44;20974623;28;20330;-62
2022/10/25 22:07:34;;;;;;;;;;;;;;;10.04;100.00;101096.72;20971751;28;19932;-62
2022/10/25 22:17:55;;;;;;;;;;;;;;;9.94;100.00;101090.31;20972572;28;19928;-62
2022/10/25 22:28:17;;;;;;;;;;;;;;;9.88;100.00;101093.28;20956173;28;20014;-62
2022/10/25 22:38:38;;;;;;;;;;;;;;;9.87;100.00;101089.00;20994333;28;19994;-62
2022/10/25 22:49:04;;;;;;;;;;;;;;;9.61;100.00;101087.03;20981487;28;19925;-62
2022/10/25 22:59:25;;;;;;;;;;;;;;;9.56;100.00;101078.66;20962039;28;19978;-62
2022/10/25 23:09:47;;;;;;;;;;;;;;;9.43;100.00;101072.47;20979895;28;19924;-62
2022/10/25 23:20:09;;;;;;;;;;;;;;;9.32;100.00;101084.38;20966778;28;19933;-62
2022/10/25 23:30:32;;;;;;;;;;;;;;;9.36;100.00;101081.53;20962830;28;20344;-63
2022/10/25 23:40:53;;;;;;;;;;;;;;;9.33;100.00;101076.47;20962944;28;19928;-62
2022/10/25 23:51:15;;;;;;;;;;;;;;;9.23;100.00;101070.13;20970783;28;19928;-62
